• Join FlightAware (Why Join?)
  • Login
  • US Flag 
11:01PM EST


 

Airport Tracker/Info


-or-


 

Live Flight TrackerFlight Track Log ✈ UCA4838 ✈ 27-May-2013 ✈ KBUF - KEWR

Flight Track Log - Related Links

Times and Time Zones

All times are in EDT time to prevent confusion due to time zone crossing. See the UCA4838 flight status page for this flight to view local times or setup timezone preferences in your user account.

Time Position Orientation Groundspeed Altitude Reporting Facility
EDT Latitude Longitude Course Direction KTS MPH feet Rate Location/Type
06:28PM 42.9333 -78.7333 98° East 132 152 1,300  Level Buffalo TRACON
06:29PM 42.8833 -78.7500 194° South 188 216 2,700 1,260 Climbing Buffalo TRACON
06:31PM 42.8872 -78.6111 88° East 196 226 5,500 1,380 Climbing Cleveland Center
06:32PM 42.8817 -78.5319 95° East 196 226 7,100 1,320 Climbing Cleveland Center
06:33PM 42.6945 -78.1964 98° East  Level Estimated
06:33PM 42.8783 -78.4528 93° East 196 226 8,200  Level Cleveland Center
06:34PM 42.8747 -78.3733 94° East 203 234 9,500 1,320 Climbing Cleveland Center
06:35PM 42.8689 -78.2886 95° East 203 234 10,900 1,200 Climbing Cleveland Center
06:36PM 42.8653 -78.2094 94° East 208 239 11,900 1,020 Climbing Cleveland Center
06:37PM 42.8594 -78.1275 96° East 213 245 13,000 1,020 Climbing Cleveland Center
06:38PM 42.8533 -78.0428 96° East 219 252 14,000 900 Climbing Cleveland Center
06:39PM 42.8497 -77.9692 94° East 219 252 14,800 480 Climbing Cleveland Center
06:40PM 42.8414 -77.8789 97° East 219 252 15,000 60 Climbing Cleveland Center
06:41PM 42.8369 -77.7800 93° East 241 277 15,000  Level Cleveland Center
06:42PM 42.8342 -77.6756 92° East 258 297 15,000  Level Cleveland Center
06:43PM 42.8317 -77.5708 92° East 264 304 15,000  Level Cleveland Center
06:44PM 42.8308 -77.4661 91° East 270 311 15,000  Level Cleveland Center
06:46PM 42.8281 -77.2714 91° East 278 320 15,000  Level New York Center
06:47PM 42.8256 -77.1636 92° East 278 320 15,000  Level New York Center
06:48PM 42.8228 -77.0617 92° East 278 320 15,000  Level New York Center
06:49PM 42.8117 -76.9561 98° East 278 320 15,000  Level New York Center
06:50PM 42.7683 -76.8644 123° Southeast 273 314 15,000  Level New York Center
06:51PM 42.7256 -76.7672 121° Southeast 289 333 15,000  Level New York Center
06:51PM 42.7069 -76.7328 126° Southeast 287 330 15,000  Level Boston Center
06:53PM 42.6572 -76.6161 120° Southeast 287 330 15,000  Level Boston Center
06:54PM 42.6050 -76.5056 123° Southeast 287 330 15,000  Level Boston Center
06:55PM 42.5644 -76.4125 121° Southeast 287 330 15,000  Level Boston Center
06:56PM 42.5217 -76.3197 122° Southeast 287 330 15,000  Level Boston Center
06:57PM 42.4886 -76.2472 122° Southeast 282 325 15,000  Level Boston Center
06:58PM 42.4422 -76.1403 120° Southeast 289 333 15,000  Level Boston Center
06:59PM 42.3972 -76.0447 123° Southeast 294 338 15,000  Level Boston Center
07:00PM 42.3583 -75.9553 120° Southeast 288 331 15,000  Level Boston Center
07:01PM 42.3233 -75.8803 122° Southeast 288 331 15,000  Level Boston Center
07:02PM 42.2725 -75.7681 121° Southeast 288 331 15,000  Level Boston Center
07:03PM 42.2314 -75.6761 121° Southeast 288 331 15,000  Level Boston Center
07:04PM 42.1881 -75.5842 122° Southeast 288 331 15,000  Level Boston Center
07:05PM 42.1447 -75.4897 122° Southeast 283 326 15,000  Level Boston Center
07:06PM 42.1033 -75.4008 122° Southeast 283 326 15,000  Level Boston Center
07:07PM 42.0619 -75.3067 121° Southeast 283 326 15,000  Level Boston Center
07:08PM 42.0247 -75.2097 117° Southeast 283 326 15,000  Level Boston Center
07:09PM 41.9794 -75.0961 118° Southeast 288 331 15,000  Level Boston Center
07:10PM 41.9381 -74.9911 118° Southeast 288 331 15,000 -480 Level Boston Center
07:11PM 41.8789 -74.9328 144° Southeast 282 325 14,100 -1,500 Descending Boston Center
07:12PM 41.7947 -74.8739 152° Southeast 304 350 12,000 -1,980 Descending Boston Center
07:13PM 41.7292 -74.8242 150° Southeast 311 358 10,200 -1,920 Descending Boston Center
07:14PM 41.6511 -74.7683 152° Southeast 301 346 8,200 -1,680 Descending Boston Center
07:15PM 41.5917 -74.7217 150° Southeast 290 334 6,900 -1,140 Descending Boston Center
07:16PM 41.5156 -74.6692 153° Southeast 276 318 6,000 -480 Descending Boston Center
07:17PM 41.4519 -74.6225 151° Southeast 271 312 6,000  Level Boston Center
07:19PM 41.3167 -74.6333 183° South 257 296 6,000 -120 Level New York TRACON
07:20PM 41.2500 -74.5667 143° Southeast 267 307 5,700 -480 Descending New York TRACON
07:21PM 41.2167 -74.5167 132° Southeast 270 311 5,100 -420 Descending New York TRACON
07:22PM 41.1500 -74.4500 143° Southeast 263 303 5,000 -60 Descending New York TRACON
07:23PM 41.1000 -74.3667 129° Southeast 262 302 5,000  Level New York TRACON
07:24PM 41.0500 -74.3167 143° Southeast 256 295 5,000  Level New York TRACON
07:25PM 40.9833 -74.2333 137° Southeast 264 304 5,000 -480 Level New York TRACON
07:26PM 40.9500 -74.1833 131° Southeast 255 293 4,100 -720 Descending New York TRACON
07:27PM 40.9000 -74.1333 143° Southeast 200 230 3,600 -600 Descending New York TRACON
07:28PM 40.8500 -74.0833 143° Southeast 187 215 3,000 -600 Descending New York TRACON
07:29PM 40.8167 -74.0833 180° South 180 207 2,500 -660 Descending New York TRACON
07:30PM 40.7667 -74.1167 207° Southwest 131 151 1,700 -720 Descending New York TRACON
07:31PM 40.7500 -74.1333 217° Southwest 121 139 1,100 -660 Descending New York TRACON
07:32PM 40.7167 -74.1500 201° Southwest 114 131 500 -600 Descending New York TRACON
07:34PM 40.6925 -74.1687 166° South  Level Estimated